createdAt,value
2022-10-07T16:09:26.309Z,17.70
2022-10-07T16:11:58.317Z,17.70
2022-10-07T16:14:29.121Z,17.70
2022-10-07T16:17:01.096Z,17.70
2022-10-07T16:19:33.956Z,17.60
2022-10-07T16:22:12.449Z,17.60
2022-10-07T16:24:42.673Z,17.60
2022-10-07T16:27:13.033Z,17.50
2022-10-07T16:29:58.937Z,17.50
2022-10-07T16:32:31.187Z,16.40
2022-10-07T16:35:02.076Z,17.20
2022-10-07T16:37:31.270Z,17.30
2022-10-07T16:40:01.878Z,17.20
2022-10-07T16:42:37.984Z,17.10
2022-10-07T16:45:24.188Z,17.00
2022-10-07T16:47:55.875Z,17.00
2022-10-07T16:50:32.174Z,17.20
2022-10-07T16:53:03.368Z,16.80
2022-10-07T16:55:45.577Z,16.00
2022-10-07T16:58:18.012Z,16.40
2022-10-07T17:00:47.846Z,16.50
2022-10-07T17:03:16.940Z,16.50
2022-10-07T17:05:47.457Z,16.40
2022-10-07T17:08:17.468Z,16.40
2022-10-07T17:10:47.195Z,16.30
2022-10-07T17:13:20.215Z,16.20
2022-10-07T17:15:52.651Z,16.00
2022-10-07T17:18:21.853Z,16.10
2022-10-07T17:20:52.786Z,16.00
2022-10-07T17:23:26.443Z,16.00
2022-10-07T17:25:56.841Z,15.90
2022-10-07T17:28:28.699Z,15.90
2022-10-07T17:31:05.066Z,15.80
2022-10-07T17:33:35.428Z,15.80
2022-10-07T17:36:11.140Z,15.80
2022-10-07T17:38:40.325Z,15.70
2022-10-07T17:41:17.794Z,15.60
2022-10-07T17:43:47.087Z,15.60
2022-10-07T17:46:18.590Z,15.60
2022-10-07T17:48:48.635Z,15.50
2022-10-07T17:51:20.602Z,15.50
2022-10-07T17:53:50.565Z,15.50
2022-10-07T17:56:20.487Z,15.50
2022-10-07T17:58:51.190Z,15.40
2022-10-07T18:01:24.258Z,15.50
2022-10-07T18:03:54.345Z,15.40
2022-10-07T18:06:25.765Z,15.40
2022-10-07T18:08:55.207Z,15.40
2022-10-07T18:11:44.079Z,15.30
2022-10-07T18:14:30.771Z,15.30
2022-10-07T18:16:59.684Z,15.20
2022-10-07T18:19:29.868Z,15.20
2022-10-07T18:22:00.220Z,14.80
2022-10-07T18:24:30.145Z,15.20
2022-10-07T18:27:00.811Z,15.10
2022-10-07T18:29:30.795Z,15.30
2022-10-07T18:32:00.131Z,15.00
2022-10-07T18:34:29.282Z,15.10
2022-10-07T18:37:00.057Z,15.00
2022-10-07T18:39:30.941Z,15.00
2022-10-07T18:42:00.450Z,14.90
2022-10-07T18:44:29.804Z,15.00
2022-10-07T18:46:58.920Z,14.90
2022-10-07T18:49:27.840Z,14.90
2022-10-07T18:51:57.966Z,14.90
2022-10-07T18:54:29.763Z,14.90
2022-10-07T18:56:58.536Z,14.90
2022-10-07T18:59:27.791Z,14.90
2022-10-07T19:01:57.181Z,14.90
2022-10-07T19:04:26.417Z,14.90
2022-10-07T19:06:56.313Z,14.90
2022-10-07T19:09:25.719Z,14.80
2022-10-07T19:11:56.071Z,14.80
2022-10-07T19:14:31.311Z,14.70
2022-10-07T19:17:00.103Z,15.20
2022-10-07T19:19:30.452Z,14.90
2022-10-07T19:21:59.996Z,14.70
2022-10-07T19:24:42.596Z,14.70
2022-10-07T19:27:13.543Z,14.70
2022-10-07T19:29:42.644Z,14.60
2022-10-07T19:32:11.439Z,14.90
2022-10-07T19:34:40.854Z,14.60
2022-10-07T19:37:09.954Z,14.50
2022-10-07T19:39:39.050Z,14.60
2022-10-07T19:42:08.025Z,14.50
2022-10-07T19:44:40.360Z,14.60
2022-10-07T19:47:09.401Z,14.50
2022-10-07T19:49:40.517Z,14.40
2022-10-07T19:52:09.370Z,13.80
2022-10-07T19:54:45.409Z,14.40
2022-10-07T19:57:14.422Z,14.40
2022-10-07T19:59:45.869Z,14.30
2022-10-07T20:02:15.258Z,14.30
2022-10-07T20:04:45.775Z,14.30
2022-10-07T20:07:14.691Z,14.20
2022-10-07T20:09:43.579Z,14.20
2022-10-07T20:12:14.127Z,14.20
2022-10-07T20:14:44.718Z,14.20
2022-10-07T20:17:13.816Z,14.10
2022-10-07T20:19:42.598Z,14.10
2022-10-07T20:22:11.585Z,14.10
2022-10-07T20:24:44.794Z,14.10
2022-10-07T20:27:13.699Z,14.00
2022-10-07T20:29:58.211Z,14.00
2022-10-07T20:32:28.845Z,14.00
2022-10-07T20:34:57.608Z,14.00
2022-10-07T20:37:26.844Z,13.90
2022-10-07T20:40:13.109Z,13.90
2022-10-07T20:42:46.068Z,13.90
2022-10-07T20:45:20.893Z,13.80
2022-10-07T20:47:49.871Z,13.80
2022-10-07T20:50:20.306Z,13.80
2022-10-07T20:52:49.752Z,13.70
2022-10-07T20:55:18.746Z,13.70
2022-10-07T20:57:47.509Z,13.70
2022-10-07T21:00:18.917Z,13.60
2022-10-07T21:02:48.385Z,13.60
2022-10-07T21:05:31.597Z,13.60
2022-10-07T21:08:00.166Z,13.50
2022-10-07T21:10:29.734Z,13.50
2022-10-07T21:12:59.673Z,13.50
2022-10-07T21:15:31.029Z,13.50
2022-10-07T21:18:00.035Z,13.50
2022-10-07T21:20:29.699Z,13.40
2022-10-07T21:22:58.882Z,13.50
2022-10-07T21:25:27.962Z,13.40
2022-10-07T21:27:56.671Z,13.40
2022-10-07T21:30:25.432Z,13.40
2022-10-07T21:32:56.212Z,13.40
2022-10-07T21:35:25.473Z,13.40
2022-10-07T21:37:54.257Z,13.50
2022-10-07T21:40:23.395Z,13.40
2022-10-07T21:42:52.192Z,13.40
2022-10-07T21:45:21.266Z,13.40
2022-10-07T21:47:50.850Z,13.40
2022-10-07T21:50:22.075Z,13.40
2022-10-07T21:52:51.195Z,13.40
2022-10-07T21:55:19.964Z,13.40
2022-10-07T21:57:48.963Z,13.40
2022-10-07T22:00:18.438Z,13.40
2022-10-07T22:02:47.277Z,13.40
2022-10-07T22:05:16.823Z,13.40
2022-10-07T22:08:06.758Z,13.40
2022-10-07T22:10:35.413Z,13.30
2022-10-07T22:13:05.991Z,13.30
2022-10-07T22:15:39.719Z,13.30
2022-10-07T22:18:08.393Z,13.30
2022-10-07T22:20:39.222Z,13.20
2022-10-07T22:23:10.067Z,13.20
2022-10-07T22:25:38.717Z,13.20
2022-10-07T22:28:07.432Z,13.10
2022-10-07T22:30:40.369Z,13.10
2022-10-07T22:33:15.256Z,13.10
2022-10-07T22:35:44.424Z,13.10
2022-10-07T22:38:14.788Z,13.10
2022-10-07T22:40:43.460Z,13.00
2022-10-07T22:43:12.214Z,13.00
2022-10-07T22:45:41.286Z,13.00
2022-10-07T22:48:10.221Z,13.00
2022-10-07T22:50:39.092Z,13.00
2022-10-07T22:53:08.201Z,13.00
2022-10-07T22:55:38.329Z,13.00
2022-10-07T22:58:07.130Z,13.00
2022-10-07T23:00:37.821Z,13.00
2022-10-07T23:03:07.146Z,13.00
2022-10-07T23:05:37.737Z,13.00
2022-10-07T23:08:06.692Z,13.00
2022-10-07T23:10:35.446Z,13.10
2022-10-07T23:13:05.826Z,13.00
2022-10-07T23:15:34.613Z,13.00
2022-10-07T23:18:03.567Z,13.00
2022-10-07T23:20:32.930Z,13.10
2022-10-07T23:23:02.472Z,13.00
2022-10-07T23:25:31.151Z,13.10
2022-10-07T23:28:00.100Z,13.00
2022-10-07T23:30:30.300Z,13.00
2022-10-07T23:32:58.926Z,13.00
2022-10-07T23:35:27.589Z,13.00
2022-10-07T23:37:56.720Z,13.00
2022-10-07T23:40:25.459Z,13.00
2022-10-07T23:42:54.268Z,13.00
2022-10-07T23:45:22.964Z,12.20
2022-10-07T23:47:54.721Z,12.80
2022-10-07T23:50:23.406Z,12.80
2022-10-07T23:52:52.121Z,12.80
2022-10-07T23:55:20.883Z,12.80
2022-10-07T23:57:49.739Z,12.70
